Terminal Aerodrome Forecast
Issued by NWS Jackson, MS

Home | Current Version | Previous Version | Text Only | Print | Product List | Glossary On
Versions: 1 2 3 4 5 6 7 8 9 10 11 12 13 14 15 16 17
696
FTUS44 KJAN 061129
TAFHBG
TAF
KHBG 061129Z 0612/0712 28012KT P6SM BKN015 OVC025
     FM062000 33007KT P6SM BKN015
     FM070700 01003KT P6SM BKN007 OVC015=

USA.gov is the U.S. government's official web portal to all federal, state and local government web resources and services.